createdAt,value
2023-02-13T00:00:58.597Z,103179.19
2023-02-13T00:03:26.194Z,103178.28
2023-02-13T00:05:53.411Z,103173.03
2023-02-13T00:08:20.677Z,103164.97
2023-02-13T00:10:48.536Z,103167.63
2023-02-13T00:13:19.226Z,103165.91
2023-02-13T00:15:46.663Z,103159.84
2023-02-13T00:18:13.923Z,103174.75
2023-02-13T00:20:41.204Z,103180.88
2023-02-13T00:23:08.423Z,103175.50
2023-02-13T00:25:35.675Z,103176.78
2023-02-13T00:28:03.062Z,103182.00
2023-02-13T00:30:30.330Z,103177.47
2023-02-13T00:32:58.884Z,103183.41
2023-02-13T00:35:26.099Z,103173.88
2023-02-13T00:37:53.459Z,103175.66
2023-02-13T00:40:20.736Z,103175.75
2023-02-13T00:42:58.534Z,103173.09
2023-02-13T00:45:25.721Z,103177.38
2023-02-13T00:47:53.046Z,103177.50
2023-02-13T00:50:20.323Z,103181.91
2023-02-13T00:52:47.815Z,103174.00
2023-02-13T00:55:15.072Z,103174.88
2023-02-13T00:57:42.352Z,103168.63
2023-02-13T01:00:10.060Z,103179.22
2023-02-13T01:02:38.467Z,103175.78
2023-02-13T01:05:06.233Z,103181.09
2023-02-13T01:07:33.617Z,103168.84
2023-02-13T01:10:02.128Z,103179.38
2023-02-13T01:12:29.335Z,103173.34
2023-02-13T01:14:56.584Z,103175.97
2023-02-13T01:17:23.866Z,103176.84
2023-02-13T01:19:51.124Z,103177.75
2023-02-13T01:22:18.313Z,103165.53
2023-02-13T01:24:45.551Z,103171.72
2023-02-13T01:27:12.763Z,103175.22
2023-02-13T01:29:40.007Z,103169.03
2023-02-13T01:32:07.441Z,103167.28
2023-02-13T01:34:35.015Z,103174.34
2023-02-13T01:37:02.225Z,103162.91
2023-02-13T01:39:34.797Z,103161.16
2023-02-13T01:42:02.043Z,103167.25
2023-02-13T01:44:53.790Z,103171.72
2023-02-13T01:47:45.192Z,103163.88
2023-02-13T01:50:17.474Z,103163.88
2023-02-13T01:52:55.389Z,103169.13
2023-02-13T01:55:22.985Z,103166.44
2023-02-13T01:57:55.089Z,103162.06
2023-02-13T02:00:22.533Z,103155.00
2023-02-13T02:02:58.396Z,103162.88
2023-02-13T02:05:28.341Z,103155.03
2023-02-13T02:07:56.279Z,103163.81
2023-02-13T02:10:23.803Z,103157.63
2023-02-13T02:13:15.043Z,103155.91
2023-02-13T02:15:43.622Z,103157.63
2023-02-13T02:18:16.516Z,103162.88
2023-02-13T02:21:14.813Z,103160.25
2023-02-13T02:24:09.115Z,103161.97
2023-02-13T02:26:50.494Z,103167.16
2023-02-13T02:29:51.548Z,103159.22
2023-02-13T02:32:40.029Z,103172.38
2023-02-13T02:35:33.978Z,103167.03
2023-02-13T02:38:25.966Z,103170.53
2023-02-13T02:41:03.729Z,103168.84
2023-02-13T02:43:59.936Z,103166.22
2023-02-13T02:46:38.003Z,103172.31
2023-02-13T02:49:28.402Z,103167.09
2023-02-13T02:52:13.834Z,103163.56
2023-02-13T02:55:09.948Z,103161.75
2023-02-13T02:58:04.796Z,103164.41
2023-02-13T03:00:52.056Z,103160.03
2023-02-13T03:03:41.005Z,103171.44
2023-02-13T03:06:27.812Z,103167.97
2023-02-13T03:09:17.557Z,103174.94
2023-02-13T03:12:08.244Z,103173.25
2023-02-13T03:14:35.786Z,103176.72
2023-02-13T03:17:22.586Z,103169.75
2023-02-13T03:20:30.918Z,103167.09
2023-02-13T03:23:11.211Z,103171.47
2023-02-13T03:25:58.369Z,103161.75
2023-02-13T03:28:54.434Z,103176.53
2023-02-13T03:31:45.584Z,103185.38
2023-02-13T03:34:17.406Z,103174.94
2023-02-13T03:37:29.001Z,103163.56
2023-02-13T03:40:07.962Z,103167.84
2023-02-13T03:42:43.164Z,103174.84
2023-02-13T03:45:42.875Z,103167.88
2023-02-13T03:48:30.951Z,103166.78
2023-02-13T03:51:00.135Z,103164.94
2023-02-13T03:53:30.231Z,103172.88
2023-02-13T03:56:18.455Z,103162.19
2023-02-13T03:59:08.437Z,103165.69
2023-02-13T04:01:36.937Z,103162.22
2023-02-13T04:04:12.739Z,103160.50
2023-02-13T04:07:00.533Z,103165.78
2023-02-13T04:09:29.558Z,103154.28
2023-02-13T04:12:16.672Z,103151.69
2023-02-13T04:15:01.345Z,103162.28
2023-02-13T04:17:39.770Z,103158.00
2023-02-13T04:20:08.143Z,103153.59
2023-02-13T04:22:35.417Z,103155.34
2023-02-13T04:25:02.630Z,103150.94
2023-02-13T04:27:29.856Z,103151.88
2023-02-13T04:29:57.133Z,103146.56
2023-02-13T04:32:24.421Z,103146.50
2023-02-13T04:34:51.664Z,103141.34
2023-02-13T04:37:18.959Z,103137.78
2023-02-13T04:39:48.355Z,103136.91
2023-02-13T04:42:15.584Z,103142.13
2023-02-13T04:44:42.847Z,103138.66
2023-02-13T04:47:10.071Z,103142.22
2023-02-13T04:49:37.341Z,103136.91
2023-02-13T04:52:04.598Z,103127.34
2023-02-13T04:54:31.864Z,103124.72
2023-02-13T04:56:59.145Z,103131.72
2023-02-13T04:59:26.441Z,103139.66
2023-02-13T05:01:54.238Z,103137.03
2023-02-13T05:04:21.586Z,103133.50
2023-02-13T05:06:48.822Z,103135.13
2023-02-13T05:09:15.982Z,103137.75
2023-02-13T05:11:43.191Z,103138.56
2023-02-13T05:14:11.491Z,103145.56
2023-02-13T05:16:38.667Z,103141.25
2023-02-13T05:19:05.821Z,103145.53
2023-02-13T05:21:51.543Z,103142.13
2023-02-13T05:24:20.724Z,103157.84
2023-02-13T05:26:47.954Z,103150.03
2023-02-13T05:29:19.495Z,103152.53
2023-02-13T05:31:58.402Z,103149.13
2023-02-13T05:34:26.891Z,103154.41
2023-02-13T05:36:54.628Z,103156.13
2023-02-13T05:39:22.374Z,103150.00
2023-02-13T05:41:50.236Z,103154.28
2023-02-13T05:44:17.625Z,103150.72
2023-02-13T05:46:47.068Z,103151.69
2023-02-13T05:49:17.664Z,103142.03
2023-02-13T05:51:46.497Z,103149.06
2023-02-13T05:54:15.966Z,103154.38
2023-02-13T05:56:44.551Z,103158.69
2023-02-13T05:59:13.016Z,103168.25
2023-02-13T06:01:40.271Z,103156.06
2023-02-13T06:04:07.507Z,103161.25
2023-02-13T06:06:36.793Z,103163.78
2023-02-13T06:09:04.103Z,103160.19
2023-02-13T06:11:31.491Z,103161.06
2023-02-13T06:13:59.611Z,103171.66
2023-02-13T06:16:26.998Z,103172.63
2023-02-13T06:18:54.271Z,103172.63
2023-02-13T06:21:22.579Z,103171.75
2023-02-13T06:23:49.982Z,103175.25
2023-02-13T06:26:17.706Z,103180.56
2023-02-13T06:28:45.051Z,103178.75
2023-02-13T06:31:12.561Z,103176.19
2023-02-13T06:33:39.827Z,103177.94
2023-02-13T06:36:07.524Z,103184.03
2023-02-13T06:38:34.723Z,103180.59
2023-02-13T06:41:02.750Z,103178.81
2023-02-13T06:43:30.108Z,103183.16
2023-02-13T06:45:57.567Z,103184.94
2023-02-13T06:48:25.155Z,103184.13
2023-02-13T06:50:52.598Z,103185.78
2023-02-13T06:53:24.918Z,103197.13
2023-02-13T06:55:53.485Z,103188.47
2023-02-13T06:58:22.146Z,103191.09
2023-02-13T07:00:49.889Z,103198.09
2023-02-13T07:03:17.627Z,103199.84
2023-02-13T07:05:46.153Z,103205.97
2023-02-13T07:08:13.882Z,103204.25
2023-02-13T07:10:41.666Z,103206.00
2023-02-13T07:13:09.658Z,103206.00
2023-02-13T07:15:37.461Z,103201.69
2023-02-13T07:18:05.598Z,103202.56
2023-02-13T07:20:33.272Z,103206.97
2023-02-13T07:23:04.551Z,103201.59
2023-02-13T07:25:32.373Z,103204.25
2023-02-13T07:28:06.963Z,103198.97
2023-02-13T07:30:34.942Z,103204.22
2023-02-13T07:33:05.738Z,103198.06
2023-02-13T07:35:33.649Z,103198.97
2023-02-13T07:38:01.078Z,103204.31
2023-02-13T07:40:28.418Z,103201.72
2023-02-13T07:42:56.393Z,103204.38
2023-02-13T07:45:23.774Z,103211.44
2023-02-13T07:47:50.944Z,103205.28
2023-02-13T07:50:18.267Z,103205.22
2023-02-13T07:52:52.701Z,103199.97
2023-02-13T07:55:20.056Z,103207.94
2023-02-13T07:57:47.294Z,103210.63
2023-02-13T08:00:15.410Z,103201.03
2023-02-13T08:02:42.677Z,103203.56
2023-02-13T08:05:09.933Z,103207.16
2023-02-13T08:07:37.312Z,103212.41
2023-02-13T08:10:26.477Z,103216.88
2023-02-13T08:12:53.812Z,103216.97
2023-02-13T08:15:21.163Z,103215.13
2023-02-13T08:17:48.414Z,103215.13
2023-02-13T08:20:15.682Z,103222.19
2023-02-13T08:22:42.947Z,103222.16
2023-02-13T08:25:10.282Z,103217.75
2023-02-13T08:27:38.330Z,103221.31
2023-02-13T08:30:06.507Z,103224.88
2023-02-13T08:32:44.815Z,103229.31
2023-02-13T08:35:19.735Z,103228.47
2023-02-13T08:37:47.708Z,103222.25
2023-02-13T08:40:15.325Z,103221.56
2023-02-13T08:42:42.557Z,103227.72
2023-02-13T08:45:11.791Z,103230.41
2023-02-13T08:47:39.964Z,103230.47
2023-02-13T08:50:07.693Z,103229.66
2023-02-13T08:52:34.985Z,103230.56
2023-02-13T08:55:03.507Z,103225.25
2023-02-13T08:57:31.359Z,103225.25
2023-02-13T08:59:58.817Z,103230.44
2023-02-13T09:02:26.163Z,103237.53
2023-02-13T09:04:53.467Z,103239.28
2023-02-13T09:07:20.835Z,103227.84
2023-02-13T09:09:48.088Z,103226.97
2023-02-13T09:12:15.433Z,103225.28
2023-02-13T09:14:44.824Z,103224.38
2023-02-13T09:17:12.066Z,103227.88
2023-02-13T09:19:39.269Z,103226.25
2023-02-13T09:22:06.510Z,103235.88
2023-02-13T09:24:33.676Z,103242.16
2023-02-13T09:27:00.985Z,103240.41
2023-02-13T09:29:31.347Z,103232.56
2023-02-13T09:31:58.917Z,103238.59
2023-02-13T09:34:26.600Z,103235.88
2023-02-13T09:36:54.343Z,103249.09
2023-02-13T09:39:21.609Z,103242.94
2023-02-13T09:41:51.069Z,103242.78
2023-02-13T09:44:38.370Z,103240.28
2023-02-13T09:47:28.352Z,103239.41
2023-02-13T09:50:04.014Z,103238.75
2023-02-13T09:52:34.546Z,103248.47
2023-02-13T09:55:02.394Z,103244.06
2023-02-13T09:57:35.228Z,103246.72
2023-02-13T10:00:15.325Z,103250.22
2023-02-13T10:02:59.025Z,103247.50
2023-02-13T10:05:49.691Z,103255.53
2023-02-13T10:08:48.890Z,103247.78
2023-02-13T10:11:28.813Z,103246.75
2023-02-13T10:14:11.051Z,103241.50
2023-02-13T10:16:45.673Z,103238.81
2023-02-13T10:19:37.638Z,103239.88
2023-02-13T10:22:26.707Z,103232.09
2023-02-13T10:25:04.650Z,103233.03
2023-02-13T10:28:06.476Z,103236.63
2023-02-13T10:30:37.097Z,103237.47
2023-02-13T10:33:18.862Z,103245.44
2023-02-13T10:35:59.056Z,103242.66
2023-02-13T10:38:33.131Z,103231.31
2023-02-13T10:41:34.264Z,103226.94
2023-02-13T10:44:26.346Z,103222.63
2023-02-13T10:47:11.704Z,103218.28
2023-02-13T10:49:58.512Z,103220.16
2023-02-13T10:52:46.912Z,103217.59
2023-02-13T10:55:31.573Z,103211.47
2023-02-13T10:58:20.033Z,103210.53
2023-02-13T11:01:15.479Z,103214.88
2023-02-13T11:03:42.707Z,103214.00
2023-02-13T11:06:14.587Z,103213.94
2023-02-13T11:08:45.827Z,103208.63
2023-02-13T11:11:36.254Z,103207.84
2023-02-13T11:14:19.637Z,103203.44
2023-02-13T11:16:50.128Z,103197.25
2023-02-13T11:19:20.161Z,103201.75
2023-02-13T11:21:50.089Z,103203.47
2023-02-13T11:24:23.738Z,103201.66
2023-02-13T11:26:53.935Z,103199.06
2023-02-13T11:29:32.859Z,103199.06
2023-02-13T11:32:22.511Z,103198.22
2023-02-13T11:34:51.171Z,103196.28
2023-02-13T11:37:27.671Z,103190.16
2023-02-13T11:39:57.672Z,103193.53
2023-02-13T11:42:34.654Z,103192.66
2023-02-13T11:45:19.707Z,103186.69
2023-02-13T11:47:48.022Z,103186.78
2023-02-13T11:50:27.330Z,103180.66
2023-02-13T11:52:59.064Z,103166.63
2023-02-13T11:55:33.581Z,103168.47
2023-02-13T11:58:04.581Z,103174.66
2023-02-13T12:00:39.879Z,103174.72
2023-02-13T12:03:25.999Z,103168.44
2023-02-13T12:06:13.289Z,103172.81
2023-02-13T12:08:42.796Z,103185.09
2023-02-13T12:11:20.919Z,103174.59
2023-02-13T12:13:49.099Z,103171.94
2023-02-13T12:16:41.623Z,103160.63
2023-02-13T12:19:13.670Z,103165.88
2023-02-13T12:21:49.275Z,103161.47
2023-02-13T12:24:30.230Z,103159.72
2023-02-13T12:26:59.088Z,103152.69
2023-02-13T12:30:06.677Z,103165.06
2023-02-13T12:32:58.280Z,103158.88
2023-02-13T12:35:44.325Z,103156.28
2023-02-13T12:38:47.083Z,103154.47
2023-02-13T12:41:22.666Z,103153.53
2023-02-13T12:44:16.670Z,103154.38
2023-02-13T12:47:11.414Z,103157.94
2023-02-13T12:50:03.247Z,103172.00
2023-02-13T12:52:43.762Z,103164.94
2023-02-13T12:55:22.693Z,103162.34
2023-02-13T12:58:11.074Z,103169.25
2023-02-13T13:01:11.503Z,103164.84
2023-02-13T13:03:46.247Z,103171.03
2023-02-13T13:06:29.862Z,103175.41
2023-02-13T13:09:21.908Z,103173.56
2023-02-13T13:12:13.327Z,103184.81
2023-02-13T13:15:02.378Z,103188.34
2023-02-13T13:17:47.235Z,103169.91
2023-02-13T13:20:52.283Z,103167.34
2023-02-13T13:23:24.504Z,103162.06
2023-02-13T13:26:06.180Z,103163.84
2023-02-13T13:28:40.876Z,103156.75
2023-02-13T13:31:09.312Z,103148.91
2023-02-13T13:33:36.879Z,103162.13
2023-02-13T13:36:13.245Z,103157.72
2023-02-13T13:38:52.232Z,103160.44
2023-02-13T13:41:27.659Z,103156.00
2023-02-13T13:44:19.548Z,103161.97
2023-02-13T13:47:22.950Z,103159.34
2023-02-13T13:49:55.602Z,103148.06
2023-02-13T13:52:39.620Z,103162.94
2023-02-13T13:55:09.876Z,103159.41
2023-02-13T13:57:58.690Z,103152.34
2023-02-13T14:00:30.581Z,103149.78
2023-02-13T14:03:22.934Z,103150.69
2023-02-13T14:06:02.875Z,103144.56
2023-02-13T14:08:46.068Z,103149.81
2023-02-13T14:11:33.577Z,103140.09
2023-02-13T14:14:01.669Z,103139.16
2023-02-13T14:16:43.463Z,103143.66
2023-02-13T14:19:35.014Z,103146.28
2023-02-13T14:22:20.635Z,103139.19
2023-02-13T14:24:59.051Z,103137.34
2023-02-13T14:27:34.733Z,103133.72
2023-02-13T15:12:38.036Z,103094.44
2023-02-13T15:15:28.823Z,103089.19
2023-02-13T15:18:04.752Z,103094.34
2023-02-13T15:20:34.821Z,103096.00
2023-02-13T15:23:11.177Z,103099.47
2023-02-13T15:25:39.994Z,103106.50
2023-02-13T15:28:16.777Z,103108.22
2023-02-13T15:30:54.652Z,103102.09
2023-02-13T15:33:24.242Z,103107.38
2023-02-13T15:36:01.181Z,103104.81
2023-02-13T15:38:36.466Z,103101.31
2023-02-13T15:41:32.792Z,103103.97
2023-02-13T15:44:00.473Z,103094.28
2023-02-13T15:46:33.540Z,103092.47
2023-02-13T15:49:06.414Z,103090.69
2023-02-13T15:51:35.098Z,103084.53
2023-02-13T15:54:08.192Z,103080.16
2023-02-13T15:56:37.471Z,103078.41
2023-02-13T15:59:14.142Z,103079.22
2023-02-13T16:01:45.765Z,103077.38
2023-02-13T16:04:18.761Z,103073.00
2023-02-13T16:06:48.313Z,103067.84
2023-02-13T16:09:34.419Z,103069.56
2023-02-13T16:12:16.801Z,103068.59
2023-02-13T16:15:00.067Z,103075.59
2023-02-13T16:17:31.903Z,103064.16
2023-02-13T16:20:11.601Z,103061.56
2023-02-13T16:22:53.505Z,103069.47
2023-02-13T16:25:37.943Z,103060.63
2023-02-13T16:28:15.005Z,103064.19
2023-02-13T16:30:46.376Z,103067.69
2023-02-13T16:33:16.364Z,103069.44
2023-02-13T16:36:19.603Z,103080.81
2023-02-13T16:38:50.640Z,103078.00
2023-02-13T16:41:23.669Z,103085.06
2023-02-13T16:43:55.639Z,103086.84
2023-02-13T16:46:32.762Z,103081.59
2023-02-13T16:49:01.616Z,103082.47
2023-02-13T16:51:52.934Z,103091.19
2023-02-13T16:54:45.976Z,103086.84
2023-02-13T16:57:22.041Z,103093.88
2023-02-13T16:59:56.279Z,103085.13
2023-02-13T17:02:37.271Z,103087.75
2023-02-13T17:05:11.651Z,103093.88
2023-02-13T17:07:41.644Z,103093.00
2023-02-13T17:10:18.472Z,103093.03
2023-02-13T17:12:46.010Z,103093.91
2023-02-13T17:15:15.193Z,103096.50
2023-02-13T17:17:42.738Z,103100.03
2023-02-13T17:20:33.496Z,103099.16
2023-02-13T17:23:13.349Z,103095.66
2023-02-13T17:25:42.468Z,103088.59
2023-02-13T17:28:13.545Z,103096.53
2023-02-13T17:30:42.152Z,103088.63
2023-02-13T17:33:24.385Z,103090.34
2023-02-13T17:35:52.516Z,103092.13
2023-02-13T17:38:20.268Z,103105.25
2023-02-13T17:40:49.179Z,103100.84
2023-02-13T17:43:18.463Z,103107.75
2023-02-13T17:45:45.728Z,103106.88
2023-02-13T17:48:13.500Z,103099.81
2023-02-13T17:50:41.849Z,103105.06
2023-02-13T17:53:16.736Z,103102.50
2023-02-13T17:55:44.145Z,103101.50
2023-02-13T17:58:12.512Z,103100.63
2023-02-13T18:00:39.961Z,103107.63
2023-02-13T18:03:07.253Z,103105.91
2023-02-13T18:05:34.805Z,103102.34
2023-02-13T18:08:02.722Z,103110.22
2023-02-13T18:10:33.224Z,103114.50
2023-02-13T18:13:05.513Z,103114.56
2023-02-13T18:15:40.445Z,103113.69
2023-02-13T18:18:08.812Z,103110.94
2023-02-13T18:20:38.189Z,103110.16
2023-02-13T18:23:14.476Z,103105.72
2023-02-13T18:25:43.443Z,103112.75
2023-02-13T18:28:10.965Z,103107.47
2023-02-13T18:30:38.553Z,103102.03
2023-02-13T18:33:06.254Z,103111.66
2023-02-13T18:35:34.817Z,103108.06
2023-02-13T18:38:02.383Z,103108.88
2023-02-13T18:40:30.823Z,103112.44
2023-02-13T18:42:58.133Z,103105.34
2023-02-13T18:45:25.369Z,103108.97
2023-02-13T18:47:52.847Z,103107.34
2023-02-13T18:50:20.130Z,103105.63
2023-02-13T18:52:47.355Z,103099.53
2023-02-13T18:55:14.566Z,103103.88
2023-02-13T18:57:43.573Z,103098.56
2023-02-13T19:00:15.313Z,103093.19
2023-02-13T19:02:42.699Z,103096.72
2023-02-13T19:05:10.373Z,103092.41
2023-02-13T19:07:37.719Z,103095.06
2023-02-13T19:10:05.766Z,103103.78
2023-02-13T19:12:33.066Z,103097.59
2023-02-13T19:15:00.373Z,103095.91
2023-02-13T19:17:27.624Z,103096.72
2023-02-13T19:19:55.731Z,103094.88
2023-02-13T19:22:23.047Z,103099.13
2023-02-13T19:24:50.559Z,103099.97
2023-02-13T19:27:17.867Z,103102.69
2023-02-13T19:29:45.205Z,103102.72
2023-02-13T19:32:12.511Z,103095.78
2023-02-13T19:34:39.859Z,103098.44
2023-02-13T19:37:07.078Z,103103.66
2023-02-13T19:39:34.432Z,103104.50
2023-02-13T19:42:02.064Z,103111.56
2023-02-13T19:44:29.267Z,103112.34
2023-02-13T19:46:57.023Z,103120.16
2023-02-13T19:49:24.245Z,103112.34
2023-02-13T19:51:51.934Z,103116.72
2023-02-13T19:54:19.174Z,103120.09
2023-02-13T19:56:47.742Z,103117.31
2023-02-13T19:59:15.049Z,103114.88
2023-02-13T20:01:42.950Z,103124.53
2023-02-13T20:04:12.881Z,103122.78
2023-02-13T20:06:40.147Z,103128.03
2023-02-13T20:09:11.373Z,103130.63
2023-02-13T20:11:39.585Z,103127.13
2023-02-13T20:14:11.412Z,103127.16
2023-02-13T20:16:39.411Z,103128.00
2023-02-13T20:19:11.883Z,103131.41
2023-02-13T20:21:41.393Z,103127.91
2023-02-13T20:24:12.698Z,103128.81
2023-02-13T20:26:40.327Z,103134.06
2023-02-13T20:29:09.505Z,103145.53
2023-02-13T20:31:37.061Z,103142.84
2023-02-13T20:34:06.637Z,103138.44
2023-02-13T20:36:34.584Z,103141.09
2023-02-13T20:39:03.947Z,103135.75
2023-02-13T20:41:33.563Z,103138.34
2023-02-13T20:44:04.393Z,103144.47
2023-02-13T20:46:36.493Z,103131.34
2023-02-13T20:49:04.456Z,103136.69
2023-02-13T20:51:34.817Z,103143.66
2023-02-13T20:54:03.594Z,103145.44
2023-02-13T20:56:31.351Z,103152.44
2023-02-13T20:58:59.935Z,103151.41
2023-02-13T21:01:33.360Z,103147.81
2023-02-13T21:04:00.660Z,103144.03
2023-02-13T21:06:30.465Z,103150.19
2023-02-13T21:08:57.851Z,103146.91
2023-02-13T21:11:25.861Z,103151.31
2023-02-13T21:13:53.419Z,103155.53
2023-02-13T21:16:23.400Z,103157.06
2023-02-13T21:18:53.159Z,103159.59
2023-02-13T21:21:21.453Z,103158.50
2023-02-13T21:23:52.028Z,103160.94
2023-02-13T21:26:19.364Z,103154.06
2023-02-13T21:28:48.562Z,103161.94
2023-02-13T21:31:27.618Z,103157.56
2023-02-13T21:34:00.599Z,103149.72
2023-02-13T21:36:27.827Z,103151.19
2023-02-13T21:38:55.434Z,103148.66
2023-02-13T21:41:23.539Z,103150.25
2023-02-13T21:43:51.252Z,103154.38
2023-02-13T21:46:26.880Z,103159.78
2023-02-13T21:48:59.933Z,103158.63
2023-02-13T21:51:29.076Z,103161.34
2023-02-13T21:53:56.476Z,103157.09
2023-02-13T21:56:26.403Z,103150.25
2023-02-13T21:58:55.257Z,103152.09
2023-02-13T22:01:28.501Z,103153.03
2023-02-13T22:04:00.484Z,103148.59
2023-02-13T22:06:29.312Z,103153.91
2023-02-13T22:08:59.037Z,103150.41
2023-02-13T22:11:26.690Z,103156.41
2023-02-13T22:14:00.100Z,103164.34
2023-02-13T22:16:29.606Z,103166.13
2023-02-13T22:18:57.276Z,103171.44
2023-02-13T22:21:27.334Z,103166.31
2023-02-13T22:23:55.966Z,103168.09
2023-02-13T22:26:28.844Z,103177.84
2023-02-13T22:28:59.784Z,103169.84
2023-02-13T22:31:28.623Z,103172.13
2023-02-13T22:34:05.245Z,103178.66
2023-02-13T22:36:38.454Z,103178.75
2023-02-13T22:39:06.302Z,103171.72
2023-02-13T22:41:33.759Z,103174.63
2023-02-13T22:44:00.986Z,103180.50
2023-02-13T22:46:32.370Z,103173.41
2023-02-13T22:49:00.160Z,103184.81
2023-02-13T22:51:30.664Z,103184.06
2023-02-13T22:53:58.536Z,103184.75
2023-02-13T22:56:27.208Z,103185.88
2023-02-13T22:58:54.513Z,103183.25
2023-02-13T23:01:24.141Z,103190.06
2023-02-13T23:03:51.779Z,103182.31
2023-02-13T23:06:20.002Z,103178.94
2023-02-13T23:08:52.165Z,103183.13
2023-02-13T23:11:39.001Z,103183.16
2023-02-13T23:14:06.299Z,103174.22
2023-02-13T23:16:53.479Z,103177.88
2023-02-13T23:19:21.483Z,103172.88
2023-02-13T23:21:49.488Z,103171.91
2023-02-13T23:24:16.770Z,103173.09
2023-02-13T23:26:44.233Z,103168.47
2023-02-13T23:29:11.531Z,103183.09
2023-02-13T23:31:38.965Z,103182.28
2023-02-13T23:34:06.274Z,103178.19
2023-02-13T23:36:33.489Z,103182.69
2023-02-13T23:39:00.661Z,103176.44
2023-02-13T23:41:27.943Z,103174.56
2023-02-13T23:43:55.111Z,103177.84
2023-02-13T23:46:22.478Z,103177.03
2023-02-13T23:48:49.713Z,103184.81
2023-02-13T23:51:18.339Z,103184.97
2023-02-13T23:53:45.705Z,103187.88
2023-02-13T23:56:13.005Z,103186.31
2023-02-13T23:58:40.280Z,103181.06
